Wildwood, Missouri
Current Conditions -  °F | °C
As of 4:54 PM on Tuesday 21 Oct 2014 (Local Time) from KSUS Reporting Station
Clear Clear  
Wind Chill: 66°   Ceiling: Unl
Heat Index: 66°   Visibility: 10mi
Dew Point: 43°   Wind: 8mph
Humidity: 43%   Direction: 40°NE
Pressure: 30.1"   Gusts: NA
Location:  38.6038°N, 90.5556°W
Report Text: KSUS 212154Z 04007KT 10SM CLR 19/06 A3010 RMK AO2 SLP194 T01890061
Loading
Personal Weather Stations






























Interactive Weather Map
Tropical Storm Tracking
New forecast layout! Learn more

10-Day Weather Forecast

Advertisements
Track Severe Weather on mobile